Time;durP1;ratioP1;P1;durP2;ratioP2;P2;SDS_P1;SDS_P2;PMS_P1;PMS_P2;Temp;Humidity;BMP_temperature;BMP_pressure;BME280_temperature;BME280_humidity;BME280_pressure;Samples;Min_cycle;Max_cycle;Signal;HPM_P1;HPM_P2
2022/05/17 00:01:06;;;;;;;2.90;2.20;;;;;;;;;;5021151;28;20088;-51
2022/05/17 00:03:34;;;;;;;2.67;1.30;;;;;;;;;;5020502;28;20056;-52
2022/05/17 00:06:00;;;;;;;4.25;2.28;;;;;;;;;;5016206;28;20128;-57
2022/05/17 00:08:34;;;;;;;2.22;1.70;;;;;;;;;;5021637;28;20049;-54
2022/05/17 00:11:01;;;;;;;3.00;1.92;;;;;;;;;;5020006;28;20089;-58
2022/05/17 00:13:27;;;;;;;4.53;1.75;;;;;;;;;;5019424;28;20103;-55
2022/05/17 00:16:01;;;;;;;4.82;1.70;;;;;;;;;;5019116;28;20042;-58
2022/05/17 00:18:27;;;;;;;3.90;1.90;;;;;;;;;;5021655;28;20872;-57
2022/05/17 00:20:54;;;;;;;4.07;1.95;;;;;;;;;;5018583;28;20072;-57
2022/05/17 00:23:36;;;;;;;3.00;1.83;;;;;;;;;;5017910;28;20053;-56
2022/05/17 00:26:10;;;;;;;2.85;1.90;;;;;;;;;;5040102;28;20095;-51
2022/05/17 00:28:43;;;;;;;4.05;1.77;;;;;;;;;;5038468;28;20504;-53
2022/05/17 00:31:09;;;;;;;5.13;2.40;;;;;;;;;;5040860;28;20543;-54
2022/05/17 00:33:36;;;;;;;3.17;1.90;;;;;;;;;;5037424;28;20045;-56
2022/05/17 00:36:09;;;;;;;4.68;1.90;;;;;;;;;;5037717;28;20130;-55
2022/05/17 00:38:35;;;;;;;5.20;2.20;;;;;;;;;;5040831;28;20936;-54
2022/05/17 00:41:02;;;;;;;6.72;1.95;;;;;;;;;;5040820;28;20053;-56
2022/05/17 00:46:25;;;;;;;7.35;1.83;;;;;;;;;;5040627;28;20143;-57
2022/05/17 00:48:59;;;;;;;7.78;2.15;;;;;;;;;;5038747;28;20077;-57
2022/05/17 00:51:27;;;;;;;2.40;2.00;;;;;;;;;;5038834;28;20522;-57
2022/05/17 00:53:58;;;;;;;5.05;2.15;;;;;;;;;;5043408;28;20141;-54
2022/05/17 00:56:32;;;;;;;5.65;1.90;;;;;;;;;;5036813;28;20101;-57
2022/05/17 00:59:01;;;;;;;2.17;1.92;;;;;;;;;;5038220;28;20475;-58
2022/05/17 01:01:29;;;;;;;4.60;2.10;;;;;;;;;;5037672;28;20139;-57
2022/05/17 01:04:06;;;;;;;5.07;2.00;;;;;;;;;;5036381;28;20064;-49
2022/05/17 01:06:35;;;;;;;3.33;2.30;;;;;;;;;;5039414;28;20056;-51
2022/05/17 01:09:01;;;;;;;4.50;2.05;;;;;;;;;;5036961;28;20480;-54
2022/05/17 01:11:35;;;;;;;3.35;1.92;;;;;;;;;;5039804;28;20053;-53
2022/05/17 01:16:53;;;;;;;3.92;2.05;;;;;;;;;;5037228;28;20088;-53
2022/05/17 01:19:19;;;;;;;3.17;2.00;;;;;;;;;;5034869;28;20048;-51
2022/05/17 01:21:46;;;;;;;3.42;2.10;;;;;;;;;;5036364;28;20041;-50
2022/05/17 01:24:25;;;;;;;4.25;2.15;;;;;;;;;;5039050;28;20486;-52
2022/05/17 01:27:01;;;;;;;3.95;2.10;;;;;;;;;;5037072;28;20527;-55
2022/05/17 01:29:38;;;;;;;2.53;1.95;;;;;;;;;;5037507;28;20516;-57
2022/05/17 01:32:05;;;;;;;5.75;1.92;;;;;;;;;;5038408;28;20134;-58
2022/05/17 01:34:31;;;;;;;2.78;2.13;;;;;;;;;;5040041;28;20053;-58
2022/05/17 01:37:05;;;;;;;9.38;2.10;;;;;;;;;;5037678;28;20053;-58
2022/05/17 01:39:33;;;;;;;3.55;2.05;;;;;;;;;;5037082;28;20076;-57
2022/05/17 01:41:59;;;;;;;3.75;2.28;;;;;;;;;;5035827;28;20130;-53
2022/05/17 01:44:33;;;;;;;3.28;1.85;;;;;;;;;;5037399;28;20057;-48
2022/05/17 01:46:59;;;;;;;2.60;2.20;;;;;;;;;;5034861;28;20073;-50
2022/05/17 01:49:25;;;;;;;5.18;1.98;;;;;;;;;;5039504;28;20091;-51
2022/05/17 01:51:59;;;;;;;6.13;2.28;;;;;;;;;;5036384;28;20123;-54
2022/05/17 01:54:25;;;;;;;5.25;2.08;;;;;;;;;;5037723;28;20088;-55
2022/05/17 01:56:51;;;;;;;6.22;2.30;;;;;;;;;;5037989;28;20080;-51
2022/05/17 01:59:25;;;;;;;6.47;2.30;;;;;;;;;;5039736;28;20115;-46
2022/05/17 02:01:51;;;;;;;8.80;2.90;;;;;;;;;;5038514;28;20103;-53
2022/05/17 02:04:17;;;;;;;5.80;2.20;;;;;;;;;;5036822;28;20049;-49
2022/05/17 02:06:51;;;;;;;5.00;2.15;;;;;;;;;;5040496;28;20091;-52
2022/05/17 02:09:17;;;;;;;5.80;2.20;;;;;;;;;;5041049;28;20086;-51
2022/05/17 02:11:43;;;;;;;4.32;1.63;;;;;;;;;;5039938;28;20045;-49
2022/05/17 02:14:17;;;;;;;3.80;2.33;;;;;;;;;;5038423;28;20107;-49
2022/05/17 02:16:44;;;;;;;3.97;2.65;;;;;;;;;;5037092;28;20520;-53
2022/05/17 02:19:10;;;;;;;3.50;2.15;;;;;;;;;;5041435;28;20128;-53
2022/05/17 02:21:44;;;;;;;2.80;1.98;;;;;;;;;;5037787;28;20103;-54
2022/05/17 02:24:16;;;;;;;3.22;2.30;;;;;;;;;;5037476;28;20584;-53
2022/05/17 02:26:49;;;;;;;8.55;2.67;;;;;;;;;;5036809;28;20045;-52
2022/05/17 02:29:23;;;;;;;3.97;2.25;;;;;;;;;;5037514;28;20049;-48
2022/05/17 02:31:50;;;;;;;2.90;1.87;;;;;;;;;;5036766;28;20046;-51
2022/05/17 02:34:18;;;;;;;5.53;2.63;;;;;;;;;;5032805;28;20559;-53
2022/05/17 02:36:51;;;;;;;4.45;2.05;;;;;;;;;;5035726;28;20543;-53
2022/05/17 02:39:17;;;;;;;5.50;1.90;;;;;;;;;;5036192;28;20049;-49
2022/05/17 02:41:44;;;;;;;4.55;2.63;;;;;;;;;;5034462;28;20084;-59
2022/05/17 02:44:16;;;;;;;3.17;2.20;;;;;;;;;;5034293;28;20801;-58
2022/05/17 02:46:43;;;;;;;7.18;2.78;;;;;;;;;;5036108;28;20099;-58
2022/05/17 02:49:09;;;;;;;3.22;2.05;;;;;;;;;;5038521;28;20049;-58
2022/05/17 02:51:43;;;;;;;3.38;2.30;;;;;;;;;;5038346;28;20053;-58
2022/05/17 02:54:10;;;;;;;4.60;2.60;;;;;;;;;;5036780;28;20099;-58
2022/05/17 02:56:37;;;;;;;3.15;2.55;;;;;;;;;;5037348;28;20057;-51
2022/05/17 02:59:12;;;;;;;5.50;2.60;;;;;;;;;;5040045;28;20087;-58
2022/05/17 03:01:38;;;;;;;5.80;2.45;;;;;;;;;;5038537;28;20699;-58
2022/05/17 03:04:05;;;;;;;4.72;2.50;;;;;;;;;;5037767;28;20049;-58
2022/05/17 03:06:38;;;;;;;4.18;2.60;;;;;;;;;;5039533;28;20084;-53
2022/05/17 03:09:04;;;;;;;3.55;2.30;;;;;;;;;;5041971;28;20057;-57
2022/05/17 03:11:31;;;;;;;5.72;3.13;;;;;;;;;;5039590;28;20504;-57
2022/05/17 03:14:04;;;;;;;5.78;2.33;;;;;;;;;;5022556;28;20053;-57
2022/05/17 03:16:31;;;;;;;4.03;2.35;;;;;;;;;;5038671;28;20080;-47
2022/05/17 03:18:58;;;;;;;4.03;2.58;;;;;;;;;;5041441;28;20077;-56
2022/05/17 03:21:31;;;;;;;7.45;2.40;;;;;;;;;;5037511;28;20088;-52
2022/05/17 03:24:06;;;;;;;4.38;2.50;;;;;;;;;;5039364;28;20092;-53
2022/05/17 03:27:06;;;;;;;4.30;2.80;;;;;;;;;;5039924;28;20099;-54
2022/05/17 03:29:33;;;;;;;4.07;2.47;;;;;;;;;;5041233;28;20090;-53
2022/05/17 03:32:06;;;;;;;3.90;2.22;;;;;;;;;;5039539;28;20077;-48
2022/05/17 03:34:32;;;;;;;3.60;2.38;;;;;;;;;;5042868;28;20093;-52
2022/05/17 03:36:59;;;;;;;5.78;3.40;;;;;;;;;;5040404;28;20119;-47
2022/05/17 03:39:31;;;;;;;3.67;2.53;;;;;;;;;;5040972;28;20049;-47
2022/05/17 03:41:58;;;;;;;5.60;2.58;;;;;;;;;;5039631;28;20100;-50
2022/05/17 03:44:24;;;;;;;4.20;2.22;;;;;;;;;;5042282;28;20095;-52
2022/05/17 03:46:58;;;;;;;5.55;2.70;;;;;;;;;;5036660;28;20049;-52
2022/05/17 03:49:24;;;;;;;6.72;2.45;;;;;;;;;;5039645;28;20567;-48
2022/05/17 03:51:51;;;;;;;4.32;2.30;;;;;;;;;;5040134;28;20051;-48
2022/05/17 03:54:25;;;;;;;6.22;2.60;;;;;;;;;;5037708;28;20081;-52
2022/05/17 03:56:52;;;;;;;5.32;2.55;;;;;;;;;;5038301;28;20050;-49
2022/05/17 03:59:18;;;;;;;4.55;2.50;;;;;;;;;;5040691;28;20083;-51
2022/05/17 04:01:52;;;;;;;3.63;2.05;;;;;;;;;;5041193;28;20052;-51
2022/05/17 04:04:18;;;;;;;4.85;2.33;;;;;;;;;;5038989;28;20504;-54
2022/05/17 04:06:46;;;;;;;3.83;2.25;;;;;;;;;;5037324;28;20463;-53
2022/05/17 04:09:20;;;;;;;9.07;3.33;;;;;;;;;;5041587;28;20123;-55
2022/05/17 04:11:46;;;;;;;7.95;2.60;;;;;;;;;;5038603;28;20080;-52
2022/05/17 04:14:12;;;;;;;4.50;2.10;;;;;;;;;;5041892;28;20076;-53
2022/05/17 04:16:46;;;;;;;6.88;2.30;;;;;;;;;;5041662;28;20468;-56
2022/05/17 04:19:15;;;;;;;9.88;2.85;;;;;;;;;;5040974;28;20475;-48
2022/05/17 04:21:43;;;;;;;6.88;2.30;;;;;;;;;;5042494;28;20045;-46
2022/05/17 04:24:22;;;;;;;4.32;2.30;;;;;;;;;;5037849;28;20057;-44
2022/05/17 04:26:55;;;;;;;5.75;2.25;;;;;;;;;;5037682;28;20057;-49
2022/05/17 04:29:29;;;;;;;2.97;1.90;;;;;;;;;;5038766;28;20073;-46
2022/05/17 04:31:55;;;;;;;4.82;2.35;;;;;;;;;;5038555;28;20237;-56
2022/05/17 04:34:21;;;;;;;3.90;2.17;;;;;;;;;;5040547;28;20052;-48
2022/05/17 04:36:55;;;;;;;3.70;2.60;;;;;;;;;;5036924;28;20077;-55
2022/05/17 04:39:22;;;;;;;5.50;2.58;;;;;;;;;;5034581;28;20084;-56
2022/05/17 04:41:49;;;;;;;;;;;;;;;;;;5036791;28;20040;-57
2022/05/17 04:44:22;;;;;;;3.67;2.42;;;;;;;;;;5036839;28;19972;-56
2022/05/17 04:46:48;;;;;;;6.35;2.63;;;;;;;;;;5036884;28;20076;-56
2022/05/17 04:49:22;;;;;;;7.35;3.35;;;;;;;;;;5038985;28;20081;-55
2022/05/17 04:52:02;;;;;;;6.30;2.50;;;;;;;;;;5036242;28;20518;-55
2022/05/17 04:54:28;;;;;;;5.60;2.42;;;;;;;;;;5034844;28;20072;-53
2022/05/17 04:56:55;;;;;;;5.60;2.72;;;;;;;;;;5037429;28;20049;-48
2022/05/17 04:59:30;;;;;;;4.72;2.45;;;;;;;;;;5038019;28;20076;-48
2022/05/17 05:01:57;;;;;;;3.38;2.13;;;;;;;;;;5035387;28;20132;-50
2022/05/17 05:04:23;;;;;;;3.45;2.50;;;;;;;;;;5036655;28;20052;-45
2022/05/17 05:06:57;;;;;;;4.40;2.03;;;;;;;;;;5039545;28;20077;-46
2022/05/17 05:09:23;;;;;;;4.88;2.60;;;;;;;;;;5039881;28;20128;-43
2022/05/17 05:11:50;;;;;;;4.85;2.45;;;;;;;;;;5037153;28;20542;-52
2022/05/17 05:14:24;;;;;;;5.15;2.05;;;;;;;;;;5038620;28;20049;-46
2022/05/17 05:16:50;;;;;;;5.47;2.00;;;;;;;;;;5036726;28;20494;-50
2022/05/17 05:19:16;;;;;;;3.15;1.92;;;;;;;;;;5036058;28;20056;-44
2022/05/17 05:21:50;;;;;;;4.63;2.13;;;;;;;;;;5037858;28;20077;-51
2022/05/17 05:24:29;;;;;;;2.95;2.00;;;;;;;;;;5039151;28;20088;-53
2022/05/17 05:27:03;;;;;;;4.07;2.35;;;;;;;;;;5036050;28;20069;-53
2022/05/17 05:29:29;;;;;;;3.95;2.13;;;;;;;;;;5036972;28;20053;-50
2022/05/17 05:31:55;;;;;;;3.40;2.30;;;;;;;;;;5039274;28;20053;-52
2022/05/17 05:34:29;;;;;;;3.35;1.92;;;;;;;;;;5042223;28;20603;-57
2022/05/17 05:36:55;;;;;;;5.00;2.40;;;;;;;;;;5037091;28;20057;-56
2022/05/17 05:39:22;;;;;;;4.70;2.10;;;;;;;;;;5038822;28;20519;-56
2022/05/17 05:41:55;;;;;;;4.80;2.00;;;;;;;;;;5039040;28;20057;-56
2022/05/17 05:44:21;;;;;;;5.38;2.00;;;;;;;;;;5038346;28;20085;-56
2022/05/17 05:46:48;;;;;;;7.50;2.22;;;;;;;;;;5038171;28;20052;-56
2022/05/17 05:49:21;;;;;;;4.38;1.98;;;;;;;;;;5038487;28;20079;-49
2022/05/17 05:51:47;;;;;;;4.28;1.88;;;;;;;;;;5037544;28;20073;-54
2022/05/17 05:54:14;;;;;;;4.43;2.10;;;;;;;;;;5041224;28;20509;-49
2022/05/17 05:56:47;;;;;;;4.70;2.13;;;;;;;;;;5037265;28;20045;-49
2022/05/17 05:59:13;;;;;;;4.15;1.90;;;;;;;;;;5036983;28;20065;-50
2022/05/17 06:01:40;;;;;;;4.45;1.83;;;;;;;;;;5035842;28;20111;-50
2022/05/17 06:04:13;;;;;;;7.40;2.03;;;;;;;;;;5036202;28;20130;-50
2022/05/17 06:06:40;;;;;;;3.13;1.95;;;;;;;;;;5038104;28;20045;-53
2022/05/17 06:09:06;;;;;;;5.25;1.95;;;;;;;;;;5036460;28;20053;-49
2022/05/17 06:11:40;;;;;;;2.40;1.60;;;;;;;;;;5032629;28;20092;-57
2022/05/17 06:14:06;;;;;;;5.32;1.98;;;;;;;;;;5039331;28;20060;-57
2022/05/17 06:16:33;;;;;;;5.18;1.80;;;;;;;;;;5037721;28;20620;-57
2022/05/17 06:19:07;;;;;;;4.25;1.63;;;;;;;;;;5039540;28;20072;-57
2022/05/17 06:21:33;;;;;;;3.38;1.90;;;;;;;;;;5040628;28;20082;-57
2022/05/17 06:24:00;;;;;;;4.38;1.65;;;;;;;;;;5039580;28;20139;-57
2022/05/17 06:26:39;;;;;;;4.05;1.88;;;;;;;;;;5039827;28;20053;-47
2022/05/17 06:29:06;;;;;;;2.63;1.85;;;;;;;;;;5038257;28;20081;-51
2022/05/17 06:31:32;;;;;;;5.88;1.55;;;;;;;;;;5039738;28;20412;-56
2022/05/17 06:34:06;;;;;;;3.72;1.60;;;;;;;;;;5033781;28;20049;-51
2022/05/17 06:36:32;;;;;;;2.38;1.60;;;;;;;;;;5036719;28;20075;-52
2022/05/17 06:39:18;;;;;;;2.40;1.52;;;;;;;;;;5038624;28;20424;-49
2022/05/17 06:41:53;;;;;;;4.45;1.60;;;;;;;;;;5020318;28;20041;-54
2022/05/17 06:44:20;;;;;;;4.63;1.70;;;;;;;;;;5040584;28;20080;-54
2022/05/17 06:46:46;;;;;;;2.55;1.63;;;;;;;;;;5019940;28;20049;-52
2022/05/17 06:49:21;;;;;;;3.58;1.58;;;;;;;;;;5036809;28;20049;-52
2022/05/17 06:51:49;;;;;;;2.53;1.40;;;;;;;;;;5037935;28;20045;-49
2022/05/17 06:54:16;;;;;;;4.18;1.60;;;;;;;;;;5035991;28;20077;-52
2022/05/17 06:56:49;;;;;;;1.67;1.40;;;;;;;;;;5037066;28;20551;-45
2022/05/17 06:59:15;;;;;;;5.15;1.67;;;;;;;;;;5037867;28;20171;-48
2022/05/17 07:01:42;;;;;;;4.95;1.90;;;;;;;;;;5035186;28;20084;-53
2022/05/17 07:04:16;;;;;;;4.13;1.30;;;;;;;;;;5040836;28;20538;-52
2022/05/17 07:06:42;;;;;;;3.08;1.42;;;;;;;;;;5036733;28;20045;-53
2022/05/17 07:09:12;;;;;;;1.40;1.25;;;;;;;;;;5038193;28;20056;-55
2022/05/17 07:14:37;;;;;;;2.58;1.60;;;;;;;;;;5035768;28;20140;-55
2022/05/17 07:17:11;;;;;;;2.25;1.70;;;;;;;;;;5036702;28;20073;-53
2022/05/17 07:19:38;;;;;;;3.50;1.60;;;;;;;;;;5036842;28;20085;-52
2022/05/17 07:22:05;;;;;;;3.90;1.65;;;;;;;;;;5037498;28;20092;-55
2022/05/17 07:24:53;;;;;;;3.42;1.50;;;;;;;;;;5036694;28;20062;-51
2022/05/17 07:27:30;;;;;;;3.70;1.52;;;;;;;;;;5035261;28;20132;-48
2022/05/17 07:30:04;;;;;;;3.33;1.80;;;;;;;;;;5036261;28;20072;-48
2022/05/17 07:32:30;;;;;;;;;;;;;;;;;;5036351;28;20536;-50
2022/05/17 07:34:57;;;;;;;2.30;1.60;;;;;;;;;;5038555;28;19921;-46
2022/05/17 07:37:30;;;;;;;2.55;1.60;;;;;;;;;;5037312;28;20505;-45
2022/05/17 07:39:57;;;;;;;2.90;1.55;;;;;;;;;;5036317;28;20133;-49
2022/05/17 07:42:23;;;;;;;3.90;1.35;;;;;;;;;;5039635;28;20482;-51
2022/05/17 07:44:57;;;;;;;5.03;1.55;;;;;;;;;;5038908;28;20055;-48
2022/05/17 07:47:24;;;;;;;4.28;1.52;;;;;;;;;;5040167;28;20139;-51
2022/05/17 07:49:50;;;;;;;2.72;1.48;;;;;;;;;;5041225;28;20539;-51
2022/05/17 07:52:23;;;;;;;2.90;1.50;;;;;;;;;;5042529;28;20076;-49
2022/05/17 07:54:49;;;;;;;3.88;1.30;;;;;;;;;;5041752;28;21681;-46
2022/05/17 07:57:16;;;;;;;3.03;1.33;;;;;;;;;;5039756;28;20126;-46
2022/05/17 07:59:49;;;;;;;2.38;1.40;;;;;;;;;;5042249;28;20114;-48
2022/05/17 08:02:16;;;;;;;4.70;1.73;;;;;;;;;;5041017;28;20049;-53
2022/05/17 08:04:42;;;;;;;4.15;1.38;;;;;;;;;;5039880;28;20151;-51
2022/05/17 08:07:16;;;;;;;3.15;1.67;;;;;;;;;;5038640;28;20093;-48
2022/05/17 08:09:42;;;;;;;3.58;1.60;;;;;;;;;;5043474;28;20085;-51
2022/05/17 08:12:10;;;;;;;3.50;1.42;;;;;;;;;;5040538;28;20045;-44
2022/05/17 08:14:45;;;;;;;4.05;1.42;;;;;;;;;;5038494;28;20088;-48
2022/05/17 08:17:11;;;;;;;2.28;1.30;;;;;;;;;;5038476;28;20107;-47
2022/05/17 08:19:38;;;;;;;4.78;1.38;;;;;;;;;;5042178;28;20080;-51
2022/05/17 08:22:13;;;;;;;4.38;1.40;;;;;;;;;;5039178;28;20049;-54
2022/05/17 08:27:47;;;;;;;4.65;1.30;;;;;;;;;;5039976;28;20048;-53
2022/05/17 08:30:15;;;;;;;2.05;1.30;;;;;;;;;;5043256;28;20088;-52
2022/05/17 08:35:51;;;;;;;3.65;1.75;;;;;;;;;;5038372;28;20057;-52
2022/05/17 08:38:20;;;;;;;2.65;1.27;;;;;;;;;;5039511;28;20091;-50
2022/05/17 08:40:58;;;;;;;3.17;1.65;;;;;;;;;;5038884;28;20500;-48
2022/05/17 08:43:39;;;;;;;5.03;1.58;;;;;;;;;;5036730;28;20569;-53
2022/05/17 08:46:42;;;;;;;7.60;1.58;;;;;;;;;;5039682;28;20461;-47
2022/05/17 08:49:24;;;;;;;4.47;1.83;;;;;;;;;;5033312;28;20531;-48
2022/05/17 08:52:04;;;;;;;4.13;1.42;;;;;;;;;;5041797;28;20107;-48
2022/05/17 08:54:35;;;;;;;1.85;1.40;;;;;;;;;;5040853;28;20080;-44
2022/05/17 08:57:35;;;;;;;4.25;1.27;;;;;;;;;;5037805;28;20523;-50
2022/05/17 09:00:14;;;;;;;3.90;1.25;;;;;;;;;;5037561;28;20053;-49
2022/05/17 09:03:00;;;;;;;3.85;1.67;;;;;;;;;;5039773;28;20630;-55
2022/05/17 09:05:30;;;;;;;2.38;1.50;;;;;;;;;;5038447;28;20104;-55
2022/05/17 09:08:03;;;;;;;3.85;1.67;;;;;;;;;;5042007;28;20049;-57
2022/05/17 09:10:34;;;;;;;5.13;1.60;;;;;;;;;;5038066;28;20064;-56
2022/05/17 09:13:07;;;;;;;2.47;1.30;;;;;;;;;;5040992;28;20050;-55
2022/05/17 09:15:40;;;;;;;3.38;1.63;;;;;;;;;;5038691;28;20050;-56
2022/05/17 09:18:10;;;;;;;2.63;1.37;;;;;;;;;;5039919;28;20057;-49
2022/05/17 09:20:37;;;;;;;5.38;1.33;;;;;;;;;;5035953;28;20567;-49
2022/05/17 09:23:11;;;;;;;4.22;1.38;;;;;;;;;;5039068;28;20049;-50
2022/05/17 09:25:45;;;;;;;6.70;1.77;;;;;;;;;;5038116;28;20517;-52
2022/05/17 09:28:24;;;;;;;10.48;1.60;;;;;;;;;;5036065;28;20049;-45
2022/05/17 09:31:07;;;;;;;3.60;1.60;;;;;;;;;;5041603;28;20076;-53
2022/05/17 09:33:41;;;;;;;5.40;1.80;;;;;;;;;;5033655;28;20056;-50
2022/05/17 09:36:12;;;;;;;2.20;1.52;;;;;;;;;;5037321;28;20085;-48
2022/05/17 09:38:39;;;;;;;4.50;1.45;;;;;;;;;;5039074;28;20077;-50
2022/05/17 09:41:14;;;;;;;3.55;1.70;;;;;;;;;;5036073;28;20077;-49
2022/05/17 09:43:44;;;;;;;9.18;1.50;;;;;;;;;;5036187;28;20056;-51
2022/05/17 09:46:12;;;;;;;3.58;1.80;;;;;;;;;;5038398;28;20053;-53
2022/05/17 09:54:50;;;;;;;3.05;1.80;;;;;;;;;;5021495;28;20484;-54
2022/05/17 09:57:19;;;;;;;2.92;1.65;;;;;;;;;;5041227;28;20059;-47
2022/05/17 09:59:46;;;;;;;4.38;1.20;;;;;;;;;;5038433;28;20071;-56
2022/05/17 10:02:26;;;;;;;3.35;1.58;;;;;;;;;;5037333;28;20041;-50
2022/05/17 10:04:53;;;;;;;4.18;1.77;;;;;;;;;;5041874;28;20055;-54
2022/05/17 10:07:20;;;;;;;1.75;1.30;;;;;;;;;;5036067;28;20111;-49
2022/05/17 10:09:54;;;;;;;3.88;1.42;;;;;;;;;;5037056;28;20076;-50
2022/05/17 10:12:33;;;;;;;2.50;1.70;;;;;;;;;;5036489;28;20459;-55
2022/05/17 10:15:10;;;;;;;4.07;1.50;;;;;;;;;;5038974;28;20080;-54
2022/05/17 10:17:42;;;;;;;4.40;1.70;;;;;;;;;;5038305;28;20085;-50
2022/05/17 10:20:23;;;;;;;4.43;1.75;;;;;;;;;;5041150;28;20133;-55
2022/05/17 10:23:28;;;;;;;3.72;1.50;;;;;;;;;;5037792;28;20401;-54
2022/05/17 10:26:19;;;;;;;4.80;1.90;;;;;;;;;;4976259;28;20074;-52
2022/05/17 10:29:03;;;;;;;3.42;1.50;;;;;;;;;;4978784;28;20462;-54
2022/05/17 10:31:41;;;;;;;1.60;1.30;;;;;;;;;;5009221;28;20077;-54
2022/05/17 10:34:10;;;;;;;4.78;1.90;;;;;;;;;;5018979;28;20559;-50
2022/05/17 10:36:40;;;;;;;3.42;1.50;;;;;;;;;;5018120;28;20077;-56
2022/05/17 10:39:34;;;;;;;2.47;1.58;;;;;;;;;;5017610;28;20108;-49
2022/05/17 10:42:01;;;;;;;4.27;1.30;;;;;;;;;;5018982;28;20049;-53
2022/05/17 10:44:40;;;;;;;2.70;1.45;;;;;;;;;;5014769;28;20812;-52
2022/05/17 10:47:09;;;;;;;4.25;1.50;;;;;;;;;;5019860;28;20066;-54
2022/05/17 10:49:56;;;;;;;3.33;1.60;;;;;;;;;;5016235;28;20545;-54
2022/05/17 10:52:34;;;;;;;1.65;1.08;;;;;;;;;;5016076;28;20081;-53
2022/05/17 10:55:12;;;;;;;3.25;1.35;;;;;;;;;;5015438;28;20460;-53
2022/05/17 10:57:47;;;;;;;1.80;1.27;;;;;;;;;;5015950;28;20049;-57
2022/05/17 11:00:31;;;;;;;2.17;1.40;;;;;;;;;;5017956;28;20085;-55
2022/05/17 11:03:01;;;;;;;4.63;1.30;;;;;;;;;;5014800;28;20571;-55
2022/05/17 11:05:44;;;;;;;2.33;1.42;;;;;;;;;;5019919;28;20139;-55
2022/05/17 11:08:10;;;;;;;2.97;1.45;;;;;;;;;;5016971;28;20123;-56
2022/05/17 11:10:44;;;;;;;5.18;1.73;;;;;;;;;;5020229;28;20069;-56
2022/05/17 11:13:10;;;;;;;3.88;1.55;;;;;;;;;;5019198;28;20065;-50
2022/05/17 11:15:39;;;;;;;4.13;1.67;;;;;;;;;;5016901;28;20533;-54
2022/05/17 11:18:19;;;;;;;3.42;1.70;;;;;;;;;;5017645;28;20044;-57
2022/05/17 11:20:49;;;;;;;3.90;1.60;;;;;;;;;;5023589;28;20050;-58
2022/05/17 11:23:42;;;;;;;3.50;1.60;;;;;;;;;;5017961;28;20046;-58
2022/05/17 11:26:39;;;;;;;4.75;1.70;;;;;;;;;;5031830;28;20061;-58
2022/05/17 11:29:25;;;;;;;1.92;1.33;;;;;;;;;;5038536;28;20072;-58
2022/05/17 11:31:57;;;;;;;2.38;1.60;;;;;;;;;;5025851;28;20037;-58
2022/05/17 11:34:31;;;;;;;5.55;1.60;;;;;;;;;;5042535;28;20049;-52
2022/05/17 11:36:59;;;;;;;5.35;1.65;;;;;;;;;;5038739;28;20054;-50
2022/05/17 11:39:32;;;;;;;3.17;1.60;;;;;;;;;;5039070;28;20056;-53
2022/05/17 11:42:06;;;;;;;3.38;1.70;;;;;;;;;;5036730;28;20091;-55
2022/05/17 11:44:42;;;;;;;4.50;1.65;;;;;;;;;;5023793;28;20053;-51
2022/05/17 11:47:25;;;;;;;3.20;1.42;;;;;;;;;;5041070;28;20080;-54
2022/05/17 11:49:52;;;;;;;3.10;1.38;;;;;;;;;;5041153;28;20052;-53
2022/05/17 11:52:26;;;;;;;2.88;1.65;;;;;;;;;;5039076;28;20550;-49
2022/05/17 11:54:54;;;;;;;2.25;1.35;;;;;;;;;;5039311;28;20049;-58
2022/05/17 11:57:23;;;;;;;3.58;1.60;;;;;;;;;;5044751;28;20041;-57
2022/05/17 11:59:57;;;;;;;2.85;1.90;;;;;;;;;;5039042;28;20084;-55
2022/05/17 12:02:23;;;;;;;;;;;;;;;;;;5041680;28;20044;-56
2022/05/17 12:04:50;;;;;;;2.55;1.50;;;;;;;;;;5042879;28;19963;-57
2022/05/17 12:07:27;;;;;;;4.25;1.80;;;;;;;;;;5038847;28;20053;-58
2022/05/17 12:09:55;;;;;;;4.13;1.75;;;;;;;;;;5040767;28;20100;-55
2022/05/17 12:12:48;;;;;;;2.63;1.55;;;;;;;;;;5038895;28;20084;-57
2022/05/17 12:15:22;;;;;;;2.72;1.45;;;;;;;;;;5014806;28;20053;-51
2022/05/17 12:17:51;;;;;;;3.05;1.77;;;;;;;;;;5038027;28;20057;-50
2022/05/17 12:20:36;;;;;;;5.75;1.42;;;;;;;;;;5037585;28;20083;-48
2022/05/17 12:23:16;;;;;;;2.70;1.38;;;;;;;;;;5040403;28;20107;-51
2022/05/17 12:26:01;;;;;;;4.00;1.75;;;;;;;;;;5038081;28;20080;-48
2022/05/17 12:28:49;;;;;;;4.13;1.50;;;;;;;;;;5032979;28;20560;-44
2022/05/17 12:31:19;;;;;;;3.42;1.73;;;;;;;;;;5038208;28;20045;-49
2022/05/17 12:33:54;;;;;;;7.13;1.80;;;;;;;;;;5037662;28;20057;-55
2022/05/17 12:36:23;;;;;;;6.78;1.40;;;;;;;;;;5037113;28;20073;-55
2022/05/17 12:44:42;;;;;;;3.67;1.50;;;;;;;;;;5042938;28;20315;-51
2022/05/17 12:47:30;;;;;;;5.13;1.98;;;;;;;;;;5038610;28;20088;-54
2022/05/17 12:50:03;;;;;;;5.35;1.70;;;;;;;;;;5042676;28;20049;-54
2022/05/17 12:52:37;;;;;;;2.90;1.40;;;;;;;;;;5036381;28;20107;-53
2022/05/17 12:55:07;;;;;;;3.03;1.85;;;;;;;;;;5037862;28;20088;-54
2022/05/17 12:57:35;;;;;;;3.42;1.55;;;;;;;;;;5035542;28;20077;-55
2022/05/17 13:00:11;;;;;;;3.53;1.50;;;;;;;;;;5040298;28;20099;-53
2022/05/17 13:02:46;;;;;;;3.85;1.75;;;;;;;;;;5039348;28;20394;-48
2022/05/17 13:05:48;;;;;;;4.00;1.52;;;;;;;;;;5044450;28;20557;-53
2022/05/17 13:08:23;;;;;;;7.15;1.70;;;;;;;;;;5038689;28;20072;-50
2022/05/17 13:10:58;;;;;;;4.72;1.40;;;;;;;;;;5039456;28;20057;-57
2022/05/17 13:13:24;;;;;;;2.08;1.40;;;;;;;;;;5036301;28;20099;-57
2022/05/17 13:15:56;;;;;;;5.93;1.85;;;;;;;;;;5040515;28;20045;-56
2022/05/17 13:18:34;;;;;;;2.95;1.50;;;;;;;;;;5036255;28;20095;-58
2022/05/17 13:21:03;;;;;;;6.43;1.70;;;;;;;;;;5036371;28;20408;-56
2022/05/17 13:23:30;;;;;;;3.28;1.60;;;;;;;;;;5037648;28;20461;-57
2022/05/17 13:26:13;;;;;;;4.30;1.63;;;;;;;;;;5035696;28;20077;-50
2022/05/17 13:28:45;;;;;;;6.75;1.73;;;;;;;;;;5033674;28;20072;-58
2022/05/17 13:31:20;;;;;;;3.83;1.60;;;;;;;;;;5038877;28;20615;-46
2022/05/17 13:33:56;;;;;;;4.45;1.60;;;;;;;;;;5039360;28;20139;-48
2022/05/17 13:36:36;;;;;;;;;;;;;;;;;;5039204;28;20681;-51
2022/05/17 13:39:03;;;;;;;6.60;1.42;;;;;;;;;;5039911;28;19976;-49
2022/05/17 13:41:40;;;;;;;4.75;1.40;;;;;;;;;;5023474;28;20068;-49
2022/05/17 13:44:10;;;;;;;3.53;1.55;;;;;;;;;;5037833;28;20053;-48
2022/05/17 13:46:42;;;;;;;5.57;1.80;;;;;;;;;;5035878;28;20045;-50
2022/05/17 13:49:21;;;;;;;3.85;1.85;;;;;;;;;;5039439;28;20102;-44
2022/05/17 13:52:01;;;;;;;2.72;1.52;;;;;;;;;;5038502;28;20107;-47
2022/05/17 13:54:39;;;;;;;4.82;1.50;;;;;;;;;;5038665;28;20082;-45
2022/05/17 13:57:12;;;;;;;4.15;1.73;;;;;;;;;;5038020;28;20049;-46
2022/05/17 13:59:51;;;;;;;5.90;1.70;;;;;;;;;;5036047;28;20451;-51
2022/05/17 14:02:33;;;;;;;3.65;1.40;;;;;;;;;;5037917;28;20049;-48
2022/05/17 14:05:09;;;;;;;3.63;1.30;;;;;;;;;;5037831;28;20072;-48
2022/05/17 14:07:36;;;;;;;2.72;1.55;;;;;;;;;;5037531;28;20540;-57
2022/05/17 14:13:09;;;;;;;4.72;1.85;;;;;;;;;;5035051;28;19924;-56
2022/05/17 14:15:37;;;;;;;3.55;1.70;;;;;;;;;;5035299;28;20789;-57
2022/05/17 14:18:31;;;;;;;2.03;1.52;;;;;;;;;;5020485;28;20537;-57
2022/05/17 14:20:58;;;;;;;3.83;1.40;;;;;;;;;;5035099;28;20092;-55
2022/05/17 14:23:38;;;;;;;2.88;1.50;;;;;;;;;;5033958;28;20140;-53
2022/05/17 14:26:11;;;;;;;2.08;1.40;;;;;;;;;;5036096;28;20141;-53
2022/05/17 14:28:51;;;;;;;4.68;1.70;;;;;;;;;;5040911;28;20045;-50
2022/05/17 14:31:19;;;;;;;3.05;1.33;;;;;;;;;;5037338;28;20515;-50
2022/05/17 14:33:54;;;;;;;4.35;1.63;;;;;;;;;;5039636;28;20045;-50
2022/05/17 14:36:22;;;;;;;2.80;1.40;;;;;;;;;;5037821;28;20151;-49
2022/05/17 14:38:49;;;;;;;4.82;1.67;;;;;;;;;;5035853;28;20080;-51
2022/05/17 14:41:43;;;;;;;1.92;1.17;;;;;;;;;;5034427;28;20050;-51
2022/05/17 14:44:10;;;;;;;3.97;1.55;;;;;;;;;;5038714;28;20089;-53
2022/05/17 14:47:07;;;;;;;4.05;1.58;;;;;;;;;;5037141;28;20045;-57
2022/05/17 14:49:35;;;;;;;4.45;1.40;;;;;;;;;;5038069;28;20578;-56
2022/05/17 14:52:08;;;;;;;3.00;1.50;;;;;;;;;;5035493;28;20087;-56
2022/05/17 14:54:36;;;;;;;2.23;1.37;;;;;;;;;;5040997;28;20130;-57
2022/05/17 14:57:03;;;;;;;2.35;1.38;;;;;;;;;;5042449;28;20150;-57
2022/05/17 14:59:37;;;;;;;2.25;1.40;;;;;;;;;;5031927;28;20103;-57
2022/05/17 15:02:03;;;;;;;5.32;1.75;;;;;;;;;;5039478;28;20115;-55
2022/05/17 15:04:32;;;;;;;4.72;1.42;;;;;;;;;;5041255;28;20582;-56
2022/05/17 15:07:23;;;;;;;2.92;1.63;;;;;;;;;;5044623;28;20513;-47
2022/05/17 15:09:53;;;;;;;3.15;1.77;;;;;;;;;;5043954;28;20130;-46
2022/05/17 15:12:28;;;;;;;2.83;1.27;;;;;;;;;;5035892;28;20053;-52
2022/05/17 15:14:55;;;;;;;4.40;1.30;;;;;;;;;;5042032;28;20045;-48
2022/05/17 15:17:22;;;;;;;;;;;;;;;;;;5037901;28;20081;-51
2022/05/17 15:19:56;;;;;;;3.15;1.50;;;;;;;;;;5040411;28;20442;-49
2022/05/17 15:22:22;;;;;;;6.10;1.63;;;;;;;;;;5039920;28;20080;-51
2022/05/17 15:24:50;;;;;;;7.50;1.77;;;;;;;;;;5039780;28;20064;-54
2022/05/17 15:27:29;;;;;;;2.08;1.40;;;;;;;;;;5041954;28;20059;-53
2022/05/17 15:30:03;;;;;;;5.72;1.65;;;;;;;;;;5040195;28;20053;-53
2022/05/17 15:32:43;;;;;;;2.67;1.55;;;;;;;;;;5042649;28;20472;-53
2022/05/17 15:35:11;;;;;;;3.92;1.90;;;;;;;;;;5040170;28;20088;-54
2022/05/17 15:37:45;;;;;;;2.53;1.50;;;;;;;;;;5041140;28;20053;-55
2022/05/17 15:40:12;;;;;;;4.97;1.60;;;;;;;;;;5038774;28;20135;-54
2022/05/17 15:42:38;;;;;;;2.58;1.65;;;;;;;;;;5040698;28;20056;-48
2022/05/17 15:45:12;;;;;;;5.18;1.60;;;;;;;;;;5037318;28;20049;-54